sensor_id;sensor_type;location;lat;lon;timestamp;P1;durP1;ratioP1;P2;durP2;ratioP2
78856;SDS011;68207;50.078;19.936;2023-02-28T00:01:31;13.00;;;7.70;;
78856;SDS011;68207;50.078;19.936;2023-02-28T00:03:57;10.40;;;6.10;;
78856;SDS011;68207;50.078;19.936;2023-02-28T00:06:22;12.90;;;7.60;;
78856;SDS011;68207;50.078;19.936;2023-02-28T00:08:49;12.20;;;7.10;;
78856;SDS011;68207;50.078;19.936;2023-02-28T00:11:15;13.00;;;6.70;;
78856;SDS011;68207;50.078;19.936;2023-02-28T00:13:42;10.50;;;6.70;;
78856;SDS011;68207;50.078;19.936;2023-02-28T00:16:12;11.90;;;7.10;;
78856;SDS011;68207;50.078;19.936;2023-02-28T00:18:39;14.60;;;7.60;;
78856;SDS011;68207;50.078;19.936;2023-02-28T00:21:06;13.40;;;7.60;;
78856;SDS011;68207;50.078;19.936;2023-02-28T00:23:32;15.80;;;8.40;;
78856;SDS011;68207;50.078;19.936;2023-02-28T00:25:58;12.50;;;6.30;;
78856;SDS011;68207;50.078;19.936;2023-02-28T00:28:23;10.70;;;6.30;;
78856;SDS011;68207;50.078;19.936;2023-02-28T00:30:49;13.10;;;6.80;;
78856;SDS011;68207;50.078;19.936;2023-02-28T00:33:14;11.20;;;6.20;;
78856;SDS011;68207;50.078;19.936;2023-02-28T00:35:40;11.90;;;6.20;;
78856;SDS011;68207;50.078;19.936;2023-02-28T00:38:05;11.10;;;6.00;;
78856;SDS011;68207;50.078;19.936;2023-02-28T00:40:31;10.70;;;5.30;;
78856;SDS011;68207;50.078;19.936;2023-02-28T00:42:56;11.40;;;5.90;;
78856;SDS011;68207;50.078;19.936;2023-02-28T00:45:22;11.10;;;6.00;;
78856;SDS011;68207;50.078;19.936;2023-02-28T00:47:47;11.60;;;6.80;;
78856;SDS011;68207;50.078;19.936;2023-02-28T00:50:16;13.60;;;6.60;;
78856;SDS011;68207;50.078;19.936;2023-02-28T00:52:42;12.60;;;6.30;;
78856;SDS011;68207;50.078;19.936;2023-02-28T00:55:07;9.00;;;5.40;;
78856;SDS011;68207;50.078;19.936;2023-02-28T00:57:33;9.80;;;6.30;;
78856;SDS011;68207;50.078;19.936;2023-02-28T00:59:58;7.90;;;5.50;;
78856;SDS011;68207;50.078;19.936;2023-02-28T01:02:24;9.80;;;5.80;;
78856;SDS011;68207;50.078;19.936;2023-02-28T01:04:49;10.70;;;5.50;;
78856;SDS011;68207;50.078;19.936;2023-02-28T01:07:15;9.10;;;5.60;;
78856;SDS011;68207;50.078;19.936;2023-02-28T01:09:41;10.20;;;6.10;;
78856;SDS011;68207;50.078;19.936;2023-02-28T01:12:07;10.30;;;6.60;;
78856;SDS011;68207;50.078;19.936;2023-02-28T01:14:33;8.70;;;5.80;;
78856;SDS011;68207;50.078;19.936;2023-02-28T01:16:59;9.90;;;5.50;;
78856;SDS011;68207;50.078;19.936;2023-02-28T01:19:24;9.70;;;6.00;;
78856;SDS011;68207;50.078;19.936;2023-02-28T01:21:50;10.70;;;6.40;;
78856;SDS011;68207;50.078;19.936;2023-02-28T01:24:15;8.30;;;5.40;;
78856;SDS011;68207;50.078;19.936;2023-02-28T01:26:40;10.00;;;5.70;;
78856;SDS011;68207;50.078;19.936;2023-02-28T01:29:06;11.90;;;6.00;;
78856;SDS011;68207;50.078;19.936;2023-02-28T01:31:31;10.40;;;6.20;;
78856;SDS011;68207;50.078;19.936;2023-02-28T01:34:00;11.70;;;6.10;;
78856;SDS011;68207;50.078;19.936;2023-02-28T01:36:25;12.30;;;6.60;;
78856;SDS011;68207;50.078;19.936;2023-02-28T01:38:51;10.70;;;6.80;;
78856;SDS011;68207;50.078;19.936;2023-02-28T01:46:10;10.20;;;5.70;;
78856;SDS011;68207;50.078;19.936;2023-02-28T01:48:42;10.10;;;5.40;;
78856;SDS011;68207;50.078;19.936;2023-02-28T01:51:13;9.70;;;5.40;;
78856;SDS011;68207;50.078;19.936;2023-02-28T01:53:44;11.90;;;6.10;;
78856;SDS011;68207;50.078;19.936;2023-02-28T01:56:13;11.30;;;6.90;;
78856;SDS011;68207;50.078;19.936;2023-02-28T01:58:45;9.50;;;6.00;;
78856;SDS011;68207;50.078;19.936;2023-02-28T02:01:12;12.70;;;6.70;;
78856;SDS011;68207;50.078;19.936;2023-02-28T02:03:46;12.70;;;6.60;;
78856;SDS011;68207;50.078;19.936;2023-02-28T02:06:24;9.20;;;6.50;;
78856;SDS011;68207;50.078;19.936;2023-02-28T02:08:54;10.20;;;6.10;;
78856;SDS011;68207;50.078;19.936;2023-02-28T02:11:20;10.70;;;6.70;;
78856;SDS011;68207;50.078;19.936;2023-02-28T02:16:35;12.20;;;6.50;;
78856;SDS011;68207;50.078;19.936;2023-02-28T02:19:14;11.00;;;6.20;;
78856;SDS011;68207;50.078;19.936;2023-02-28T02:24:48;11.40;;;7.00;;
78856;SDS011;68207;50.078;19.936;2023-02-28T02:30:20;12.50;;;7.40;;
78856;SDS011;68207;50.078;19.936;2023-02-28T02:33:27;17.00;;;8.30;;
78856;SDS011;68207;50.078;19.936;2023-02-28T02:44:07;15.00;;;8.40;;
78856;SDS011;68207;50.078;19.936;2023-02-28T02:46:44;14.40;;;8.10;;
78856;SDS011;68207;50.078;19.936;2023-02-28T02:49:13;18.10;;;8.90;;
78856;SDS011;68207;50.078;19.936;2023-02-28T02:51:49;14.60;;;8.50;;
78856;SDS011;68207;50.078;19.936;2023-02-28T02:54:18;15.60;;;9.10;;
78856;SDS011;68207;50.078;19.936;2023-02-28T02:56:48;14.50;;;9.00;;
78856;SDS011;68207;50.078;19.936;2023-02-28T02:59:16;14.60;;;9.30;;
78856;SDS011;68207;50.078;19.936;2023-02-28T03:01:47;16.00;;;9.40;;
78856;SDS011;68207;50.078;19.936;2023-02-28T03:04:18;27.80;;;14.90;;
78856;SDS011;68207;50.078;19.936;2023-02-28T03:06:46;23.10;;;13.10;;
78856;SDS011;68207;50.078;19.936;2023-02-28T03:09:12;25.90;;;13.40;;
78856;SDS011;68207;50.078;19.936;2023-02-28T03:11:38;26.50;;;13.60;;
78856;SDS011;68207;50.078;19.936;2023-02-28T03:14:25;28.20;;;14.30;;
78856;SDS011;68207;50.078;19.936;2023-02-28T03:19:47;23.40;;;12.90;;
78856;SDS011;68207;50.078;19.936;2023-02-28T03:22:30;21.50;;;12.80;;
78856;SDS011;68207;50.078;19.936;2023-02-28T03:25:01;24.30;;;13.30;;
78856;SDS011;68207;50.078;19.936;2023-02-28T03:33:12;23.10;;;12.10;;
78856;SDS011;68207;50.078;19.936;2023-02-28T03:36:10;21.50;;;11.80;;
78856;SDS011;68207;50.078;19.936;2023-02-28T03:38:46;20.50;;;11.70;;
78856;SDS011;68207;50.078;19.936;2023-02-28T03:41:22;21.80;;;11.50;;
78856;SDS011;68207;50.078;19.936;2023-02-28T03:43:54;21.50;;;11.20;;
78856;SDS011;68207;50.078;19.936;2023-02-28T03:48:53;18.90;;;10.80;;
78856;SDS011;68207;50.078;19.936;2023-02-28T03:51:23;20.50;;;10.90;;
78856;SDS011;68207;50.078;19.936;2023-02-28T03:53:52;23.60;;;12.40;;
78856;SDS011;68207;50.078;19.936;2023-02-28T03:56:24;23.60;;;11.50;;
78856;SDS011;68207;50.078;19.936;2023-02-28T04:01:32;14.70;;;8.60;;
78856;SDS011;68207;50.078;19.936;2023-02-28T04:04:03;17.80;;;9.40;;
78856;SDS011;68207;50.078;19.936;2023-02-28T04:06:30;14.50;;;8.90;;
78856;SDS011;68207;50.078;19.936;2023-02-28T04:08:57;24.90;;;14.70;;
78856;SDS011;68207;50.078;19.936;2023-02-28T04:11:24;22.10;;;11.80;;
78856;SDS011;68207;50.078;19.936;2023-02-28T04:13:58;24.90;;;13.30;;
78856;SDS011;68207;50.078;19.936;2023-02-28T04:16:26;24.70;;;14.50;;
78856;SDS011;68207;50.078;19.936;2023-02-28T04:18:51;24.00;;;13.20;;
78856;SDS011;68207;50.078;19.936;2023-02-28T04:21:17;22.50;;;13.20;;
78856;SDS011;68207;50.078;19.936;2023-02-28T04:23:45;21.90;;;11.60;;
78856;SDS011;68207;50.078;19.936;2023-02-28T04:26:11;26.30;;;12.70;;
78856;SDS011;68207;50.078;19.936;2023-02-28T04:28:37;23.80;;;13.30;;
78856;SDS011;68207;50.078;19.936;2023-02-28T04:31:04;20.00;;;12.30;;
78856;SDS011;68207;50.078;19.936;2023-02-28T04:33:30;22.00;;;12.00;;
78856;SDS011;68207;50.078;19.936;2023-02-28T04:36:01;19.60;;;11.40;;
78856;SDS011;68207;50.078;19.936;2023-02-28T04:38:28;17.80;;;10.90;;
78856;SDS011;68207;50.078;19.936;2023-02-28T04:41:01;18.60;;;10.20;;
78856;SDS011;68207;50.078;19.936;2023-02-28T04:43:27;20.60;;;10.80;;
78856;SDS011;68207;50.078;19.936;2023-02-28T04:45:53;17.50;;;10.30;;
78856;SDS011;68207;50.078;19.936;2023-02-28T04:48:22;21.00;;;11.50;;
78856;SDS011;68207;50.078;19.936;2023-02-28T04:50:48;16.00;;;9.30;;
78856;SDS011;68207;50.078;19.936;2023-02-28T04:53:14;19.70;;;10.90;;
78856;SDS011;68207;50.078;19.936;2023-02-28T04:55:39;21.60;;;10.80;;
78856;SDS011;68207;50.078;19.936;2023-02-28T04:58:05;17.90;;;10.60;;
78856;SDS011;68207;50.078;19.936;2023-02-28T05:00:31;25.80;;;14.70;;
78856;SDS011;68207;50.078;19.936;2023-02-28T05:02:56;25.10;;;14.50;;
78856;SDS011;68207;50.078;19.936;2023-02-28T05:05:21;24.90;;;14.00;;
78856;SDS011;68207;50.078;19.936;2023-02-28T05:07:47;24.30;;;13.50;;
78856;SDS011;68207;50.078;19.936;2023-02-28T05:10:12;29.10;;;14.20;;
78856;SDS011;68207;50.078;19.936;2023-02-28T05:12:38;23.90;;;13.70;;
78856;SDS011;68207;50.078;19.936;2023-02-28T05:15:04;20.60;;;13.10;;
78856;SDS011;68207;50.078;19.936;2023-02-28T05:17:30;18.90;;;11.60;;
78856;SDS011;68207;50.078;19.936;2023-02-28T05:19:56;26.00;;;13.90;;
78856;SDS011;68207;50.078;19.936;2023-02-28T05:22:21;18.50;;;11.30;;
78856;SDS011;68207;50.078;19.936;2023-02-28T05:24:47;16.90;;;11.10;;
78856;SDS011;68207;50.078;19.936;2023-02-28T05:27:12;22.30;;;12.60;;
78856;SDS011;68207;50.078;19.936;2023-02-28T05:29:37;24.00;;;12.50;;
78856;SDS011;68207;50.078;19.936;2023-02-28T05:32:10;15.20;;;9.60;;
78856;SDS011;68207;50.078;19.936;2023-02-28T05:34:37;19.10;;;12.20;;
78856;SDS011;68207;50.078;19.936;2023-02-28T05:37:03;20.40;;;11.90;;
78856;SDS011;68207;50.078;19.936;2023-02-28T05:39:29;18.20;;;11.80;;
78856;SDS011;68207;50.078;19.936;2023-02-28T05:41:54;20.40;;;12.10;;
78856;SDS011;68207;50.078;19.936;2023-02-28T05:44:20;23.50;;;13.60;;
78856;SDS011;68207;50.078;19.936;2023-02-28T05:46:45;27.50;;;16.20;;
78856;SDS011;68207;50.078;19.936;2023-02-28T05:49:10;23.20;;;14.20;;
78856;SDS011;68207;50.078;19.936;2023-02-28T05:51:36;22.90;;;13.40;;
78856;SDS011;68207;50.078;19.936;2023-02-28T05:54:04;27.50;;;14.50;;
78856;SDS011;68207;50.078;19.936;2023-02-28T05:56:30;24.60;;;14.00;;
78856;SDS011;68207;50.078;19.936;2023-02-28T05:58:55;25.00;;;13.20;;
78856;SDS011;68207;50.078;19.936;2023-02-28T06:03:48;22.40;;;12.60;;
78856;SDS011;68207;50.078;19.936;2023-02-28T06:06:14;19.90;;;12.10;;
78856;SDS011;68207;50.078;19.936;2023-02-28T06:08:39;19.50;;;12.20;;
78856;SDS011;68207;50.078;19.936;2023-02-28T06:11:05;18.30;;;10.50;;
78856;SDS011;68207;50.078;19.936;2023-02-28T06:13:31;18.30;;;10.00;;
78856;SDS011;68207;50.078;19.936;2023-02-28T06:15:56;18.50;;;11.30;;
78856;SDS011;68207;50.078;19.936;2023-02-28T06:18:25;17.30;;;10.30;;
78856;SDS011;68207;50.078;19.936;2023-02-28T06:20:54;18.40;;;11.30;;
78856;SDS011;68207;50.078;19.936;2023-02-28T06:23:20;17.00;;;9.90;;
78856;SDS011;68207;50.078;19.936;2023-02-28T06:25:46;15.80;;;9.80;;
78856;SDS011;68207;50.078;19.936;2023-02-28T06:28:21;16.10;;;9.90;;
78856;SDS011;68207;50.078;19.936;2023-02-28T06:30:46;15.40;;;10.10;;
78856;SDS011;68207;50.078;19.936;2023-02-28T06:33:12;16.90;;;9.60;;
78856;SDS011;68207;50.078;19.936;2023-02-28T06:35:39;15.00;;;9.40;;
78856;SDS011;68207;50.078;19.936;2023-02-28T06:38:08;17.90;;;10.10;;
78856;SDS011;68207;50.078;19.936;2023-02-28T06:40:33;14.70;;;9.30;;
78856;SDS011;68207;50.078;19.936;2023-02-28T06:43:00;15.80;;;9.60;;
78856;SDS011;68207;50.078;19.936;2023-02-28T06:45:26;14.00;;;9.20;;
78856;SDS011;68207;50.078;19.936;2023-02-28T06:47:51;17.60;;;10.20;;
78856;SDS011;68207;50.078;19.936;2023-02-28T06:50:17;17.50;;;10.60;;
78856;SDS011;68207;50.078;19.936;2023-02-28T06:52:44;15.60;;;10.00;;
78856;SDS011;68207;50.078;19.936;2023-02-28T06:55:09;18.40;;;10.70;;
78856;SDS011;68207;50.078;19.936;2023-02-28T06:57:35;13.80;;;10.00;;
78856;SDS011;68207;50.078;19.936;2023-02-28T07:00:03;16.40;;;11.20;;
78856;SDS011;68207;50.078;19.936;2023-02-28T07:02:32;16.70;;;10.60;;
78856;SDS011;68207;50.078;19.936;2023-02-28T07:04:58;15.10;;;9.40;;
78856;SDS011;68207;50.078;19.936;2023-02-28T07:07:23;14.50;;;10.00;;
78856;SDS011;68207;50.078;19.936;2023-02-28T07:09:48;18.20;;;11.10;;
78856;SDS011;68207;50.078;19.936;2023-02-28T07:12:14;19.20;;;12.10;;
78856;SDS011;68207;50.078;19.936;2023-02-28T07:14:39;19.90;;;11.90;;
78856;SDS011;68207;50.078;19.936;2023-02-28T07:17:06;19.90;;;12.20;;
78856;SDS011;68207;50.078;19.936;2023-02-28T07:19:32;21.60;;;12.50;;
78856;SDS011;68207;50.078;19.936;2023-02-28T07:21:57;20.30;;;12.40;;
78856;SDS011;68207;50.078;19.936;2023-02-28T07:24:23;21.60;;;12.80;;
78856;SDS011;68207;50.078;19.936;2023-02-28T07:26:50;20.20;;;12.00;;
78856;SDS011;68207;50.078;19.936;2023-02-28T07:29:16;16.80;;;10.90;;
78856;SDS011;68207;50.078;19.936;2023-02-28T07:31:41;21.70;;;11.50;;
78856;SDS011;68207;50.078;19.936;2023-02-28T07:34:06;20.00;;;12.50;;
78856;SDS011;68207;50.078;19.936;2023-02-28T07:36:32;16.80;;;11.10;;
78856;SDS011;68207;50.078;19.936;2023-02-28T07:38:57;23.20;;;12.90;;
78856;SDS011;68207;50.078;19.936;2023-02-28T07:41:23;18.20;;;10.30;;
78856;SDS011;68207;50.078;19.936;2023-02-28T07:43:53;18.30;;;10.80;;
78856;SDS011;68207;50.078;19.936;2023-02-28T07:46:20;16.10;;;10.80;;
78856;SDS011;68207;50.078;19.936;2023-02-28T07:48:46;14.80;;;8.70;;
78856;SDS011;68207;50.078;19.936;2023-02-28T07:51:11;13.40;;;8.00;;
78856;SDS011;68207;50.078;19.936;2023-02-28T07:53:37;17.70;;;9.80;;
78856;SDS011;68207;50.078;19.936;2023-02-28T07:56:02;14.00;;;8.50;;
78856;SDS011;68207;50.078;19.936;2023-02-28T07:58:28;13.00;;;8.30;;
78856;SDS011;68207;50.078;19.936;2023-02-28T08:00:55;13.10;;;9.10;;
78856;SDS011;68207;50.078;19.936;2023-02-28T08:03:21;12.70;;;6.90;;
78856;SDS011;68207;50.078;19.936;2023-02-28T08:05:48;12.40;;;7.00;;
78856;SDS011;68207;50.078;19.936;2023-02-28T08:08:14;9.90;;;5.40;;
78856;SDS011;68207;50.078;19.936;2023-02-28T08:10:41;14.10;;;7.20;;
78856;SDS011;68207;50.078;19.936;2023-02-28T08:13:06;10.70;;;6.50;;
78856;SDS011;68207;50.078;19.936;2023-02-28T08:15:32;13.00;;;6.40;;
78856;SDS011;68207;50.078;19.936;2023-02-28T08:17:58;9.30;;;6.60;;
78856;SDS011;68207;50.078;19.936;2023-02-28T08:20:24;11.30;;;6.90;;
78856;SDS011;68207;50.078;19.936;2023-02-28T08:22:50;9.80;;;6.00;;
78856;SDS011;68207;50.078;19.936;2023-02-28T08:25:15;9.80;;;6.40;;
78856;SDS011;68207;50.078;19.936;2023-02-28T08:27:41;8.40;;;5.90;;
78856;SDS011;68207;50.078;19.936;2023-02-28T08:30:07;10.10;;;6.30;;
78856;SDS011;68207;50.078;19.936;2023-02-28T08:32:35;9.70;;;6.50;;
78856;SDS011;68207;50.078;19.936;2023-02-28T08:35:01;8.10;;;5.80;;
78856;SDS011;68207;50.078;19.936;2023-02-28T08:39:53;5.10;;;3.70;;
78856;SDS011;68207;50.078;19.936;2023-02-28T08:42:18;6.70;;;4.40;;
78856;SDS011;68207;50.078;19.936;2023-02-28T08:44:43;9.60;;;5.00;;
78856;SDS011;68207;50.078;19.936;2023-02-28T08:47:09;8.90;;;5.10;;
78856;SDS011;68207;50.078;19.936;2023-02-28T08:49:34;7.90;;;5.00;;
78856;SDS011;68207;50.078;19.936;2023-02-28T08:51:59;10.80;;;5.60;;
78856;SDS011;68207;50.078;19.936;2023-02-28T08:54:25;7.60;;;5.00;;
78856;SDS011;68207;50.078;19.936;2023-02-28T08:56:50;7.90;;;5.40;;
78856;SDS011;68207;50.078;19.936;2023-02-28T08:59:16;6.80;;;4.10;;
78856;SDS011;68207;50.078;19.936;2023-02-28T09:01:41;6.60;;;4.70;;
78856;SDS011;68207;50.078;19.936;2023-02-28T09:04:08;7.80;;;5.20;;
78856;SDS011;68207;50.078;19.936;2023-02-28T09:06:34;6.70;;;4.90;;
78856;SDS011;68207;50.078;19.936;2023-02-28T09:09:00;8.30;;;4.90;;
78856;SDS011;68207;50.078;19.936;2023-02-28T09:11:26;8.20;;;4.90;;
78856;SDS011;68207;50.078;19.936;2023-02-28T09:13:53;6.70;;;4.60;;
78856;SDS011;68207;50.078;19.936;2023-02-28T09:16:20;5.10;;;4.00;;
78856;SDS011;68207;50.078;19.936;2023-02-28T09:18:46;5.90;;;4.20;;
78856;SDS011;68207;50.078;19.936;2023-02-28T09:21:12;6.60;;;4.30;;
78856;SDS011;68207;50.078;19.936;2023-02-28T09:23:41;6.40;;;4.50;;
78856;SDS011;68207;50.078;19.936;2023-02-28T09:26:11;7.60;;;4.70;;
78856;SDS011;68207;50.078;19.936;2023-02-28T09:28:41;7.20;;;4.30;;
78856;SDS011;68207;50.078;19.936;2023-02-28T09:31:10;5.10;;;3.60;;
78856;SDS011;68207;50.078;19.936;2023-02-28T09:33:37;6.70;;;3.50;;
78856;SDS011;68207;50.078;19.936;2023-02-28T09:36:03;6.90;;;4.80;;
78856;SDS011;68207;50.078;19.936;2023-02-28T09:38:28;7.10;;;4.70;;
78856;SDS011;68207;50.078;19.936;2023-02-28T09:40:58;6.70;;;4.60;;
78856;SDS011;68207;50.078;19.936;2023-02-28T09:43:28;7.20;;;5.20;;
78856;SDS011;68207;50.078;19.936;2023-02-28T09:46:06;7.70;;;5.20;;
78856;SDS011;68207;50.078;19.936;2023-02-28T09:48:40;7.30;;;4.50;;
78856;SDS011;68207;50.078;19.936;2023-02-28T09:51:13;6.20;;;4.50;;
78856;SDS011;68207;50.078;19.936;2023-02-28T09:53:51;6.60;;;4.70;;
78856;SDS011;68207;50.078;19.936;2023-02-28T09:56:39;8.50;;;5.10;;
78856;SDS011;68207;50.078;19.936;2023-02-28T10:01:45;5.30;;;4.40;;
78856;SDS011;68207;50.078;19.936;2023-02-28T10:04:16;7.40;;;4.60;;
78856;SDS011;68207;50.078;19.936;2023-02-28T10:06:49;5.50;;;3.90;;
78856;SDS011;68207;50.078;19.936;2023-02-28T10:09:16;8.00;;;5.50;;
78856;SDS011;68207;50.078;19.936;2023-02-28T10:11:49;6.80;;;5.60;;
78856;SDS011;68207;50.078;19.936;2023-02-28T10:14:21;7.20;;;4.70;;
78856;SDS011;68207;50.078;19.936;2023-02-28T10:19:39;7.20;;;4.80;;
78856;SDS011;68207;50.078;19.936;2023-02-28T10:24:43;6.70;;;5.00;;
78856;SDS011;68207;50.078;19.936;2023-02-28T10:27:14;7.80;;;5.70;;
78856;SDS011;68207;50.078;19.936;2023-02-28T10:29:43;6.70;;;5.10;;
78856;SDS011;68207;50.078;19.936;2023-02-28T10:32:10;6.90;;;5.30;;
78856;SDS011;68207;50.078;19.936;2023-02-28T10:34:40;9.10;;;5.90;;
78856;SDS011;68207;50.078;19.936;2023-02-28T10:37:06;7.30;;;5.50;;
78856;SDS011;68207;50.078;19.936;2023-02-28T10:39:36;5.00;;;4.30;;
78856;SDS011;68207;50.078;19.936;2023-02-28T10:42:18;8.50;;;5.50;;
78856;SDS011;68207;50.078;19.936;2023-02-28T10:47:51;6.50;;;4.90;;
78856;SDS011;68207;50.078;19.936;2023-02-28T10:50:44;6.10;;;4.60;;
78856;SDS011;68207;50.078;19.936;2023-02-28T10:58:30;8.60;;;5.50;;
78856;SDS011;68207;50.078;19.936;2023-02-28T11:01:12;7.70;;;5.60;;
78856;SDS011;68207;50.078;19.936;2023-02-28T11:03:40;6.70;;;5.20;;
78856;SDS011;68207;50.078;19.936;2023-02-28T11:06:07;7.70;;;5.10;;
78856;SDS011;68207;50.078;19.936;2023-02-28T11:08:43;6.80;;;4.90;;
78856;SDS011;68207;50.078;19.936;2023-02-28T11:11:14;6.70;;;4.90;;
78856;SDS011;68207;50.078;19.936;2023-02-28T11:13:42;7.20;;;5.20;;
78856;SDS011;68207;50.078;19.936;2023-02-28T11:16:09;6.90;;;3.60;;
78856;SDS011;68207;50.078;19.936;2023-02-28T11:18:39;8.60;;;5.00;;
78856;SDS011;68207;50.078;19.936;2023-02-28T11:21:18;7.40;;;5.30;;
78856;SDS011;68207;50.078;19.936;2023-02-28T11:23:47;6.40;;;5.10;;
78856;SDS011;68207;50.078;19.936;2023-02-28T11:26:16;6.00;;;5.00;;
78856;SDS011;68207;50.078;19.936;2023-02-28T11:31:40;7.10;;;5.30;;
78856;SDS011;68207;50.078;19.936;2023-02-28T11:34:21;6.30;;;4.90;;
78856;SDS011;68207;50.078;19.936;2023-02-28T11:36:49;7.00;;;5.50;;
78856;SDS011;68207;50.078;19.936;2023-02-28T11:52:56;7.20;;;5.60;;
78856;SDS011;68207;50.078;19.936;2023-02-28T11:55:37;7.80;;;5.80;;
78856;SDS011;68207;50.078;19.936;2023-02-28T11:58:23;9.30;;;6.50;;
78856;SDS011;68207;50.078;19.936;2023-02-28T12:06:38;7.90;;;6.50;;
78856;SDS011;68207;50.078;19.936;2023-02-28T12:17:34;7.10;;;5.50;;
78856;SDS011;68207;50.078;19.936;2023-02-28T12:26:42;9.60;;;5.30;;
78856;SDS011;68207;50.078;19.936;2023-02-28T12:31:56;8.10;;;5.30;;
78856;SDS011;68207;50.078;19.936;2023-02-28T12:34:52;6.90;;;5.40;;
78856;SDS011;68207;50.078;19.936;2023-02-28T12:40:06;7.50;;;4.80;;
78856;SDS011;68207;50.078;19.936;2023-02-28T12:42:39;6.20;;;5.20;;
78856;SDS011;68207;50.078;19.936;2023-02-28T12:45:12;7.10;;;5.40;;
78856;SDS011;68207;50.078;19.936;2023-02-28T12:47:38;8.30;;;5.80;;
78856;SDS011;68207;50.078;19.936;2023-02-28T12:50:06;6.50;;;5.30;;
78856;SDS011;68207;50.078;19.936;2023-02-28T12:52:41;5.70;;;4.80;;
78856;SDS011;68207;50.078;19.936;2023-02-28T12:55:40;7.70;;;6.20;;
78856;SDS011;68207;50.078;19.936;2023-02-28T13:09:30;6.90;;;5.10;;
78856;SDS011;68207;50.078;19.936;2023-02-28T13:11:55;7.60;;;5.90;;
78856;SDS011;68207;50.078;19.936;2023-02-28T13:14:29;6.70;;;5.30;;
78856;SDS011;68207;50.078;19.936;2023-02-28T13:19:34;7.90;;;5.80;;
78856;SDS011;68207;50.078;19.936;2023-02-28T13:22:02;9.00;;;7.30;;
78856;SDS011;68207;50.078;19.936;2023-02-28T13:24:50;6.90;;;5.50;;
78856;SDS011;68207;50.078;19.936;2023-02-28T13:29:58;8.80;;;5.70;;
78856;SDS011;68207;50.078;19.936;2023-02-28T13:32:34;7.30;;;5.80;;
78856;SDS011;68207;50.078;19.936;2023-02-28T13:37:34;7.70;;;6.40;;
78856;SDS011;68207;50.078;19.936;2023-02-28T13:42:36;6.80;;;5.90;;
78856;SDS011;68207;50.078;19.936;2023-02-28T13:47:38;9.00;;;6.30;;
78856;SDS011;68207;50.078;19.936;2023-02-28T13:55:37;5.50;;;4.50;;
78856;SDS011;68207;50.078;19.936;2023-02-28T14:04:14;7.30;;;6.10;;
78856;SDS011;68207;50.078;19.936;2023-02-28T14:07:04;7.00;;;5.90;;
78856;SDS011;68207;50.078;19.936;2023-02-28T14:09:34;7.30;;;5.60;;
78856;SDS011;68207;50.078;19.936;2023-02-28T14:18:28;6.90;;;6.10;;
78856;SDS011;68207;50.078;19.936;2023-02-28T14:21:14;9.20;;;6.00;;
78856;SDS011;68207;50.078;19.936;2023-02-28T14:23:56;10.20;;;6.60;;
78856;SDS011;68207;50.078;19.936;2023-02-28T14:26:53;6.30;;;5.60;;
78856;SDS011;68207;50.078;19.936;2023-02-28T14:29:29;7.30;;;6.30;;
78856;SDS011;68207;50.078;19.936;2023-02-28T14:32:15;10.30;;;6.70;;
78856;SDS011;68207;50.078;19.936;2023-02-28T14:37:38;9.70;;;7.30;;
78856;SDS011;68207;50.078;19.936;2023-02-28T14:40:16;8.50;;;6.30;;
78856;SDS011;68207;50.078;19.936;2023-02-28T14:42:47;10.40;;;7.00;;
78856;SDS011;68207;50.078;19.936;2023-02-28T14:45:19;9.50;;;6.90;;
78856;SDS011;68207;50.078;19.936;2023-02-28T14:47:46;9.20;;;7.80;;
78856;SDS011;68207;50.078;19.936;2023-02-28T14:52:51;9.60;;;7.20;;
78856;SDS011;68207;50.078;19.936;2023-02-28T14:55:17;9.50;;;7.20;;
78856;SDS011;68207;50.078;19.936;2023-02-28T14:57:55;8.50;;;6.20;;
78856;SDS011;68207;50.078;19.936;2023-02-28T15:00:26;8.50;;;6.80;;
78856;SDS011;68207;50.078;19.936;2023-02-28T15:02:54;8.90;;;7.10;;
78856;SDS011;68207;50.078;19.936;2023-02-28T15:05:33;8.30;;;7.20;;
78856;SDS011;68207;50.078;19.936;2023-02-28T15:08:01;10.20;;;6.70;;
78856;SDS011;68207;50.078;19.936;2023-02-28T15:10:31;10.40;;;7.40;;
78856;SDS011;68207;50.078;19.936;2023-02-28T15:12:58;9.40;;;7.50;;
78856;SDS011;68207;50.078;19.936;2023-02-28T15:15:35;9.20;;;7.70;;
78856;SDS011;68207;50.078;19.936;2023-02-28T15:18:07;9.90;;;7.60;;
78856;SDS011;68207;50.078;19.936;2023-02-28T15:20:40;10.90;;;7.70;;
78856;SDS011;68207;50.078;19.936;2023-02-28T15:23:28;8.60;;;7.60;;
78856;SDS011;68207;50.078;19.936;2023-02-28T15:25:54;11.10;;;8.40;;
78856;SDS011;68207;50.078;19.936;2023-02-28T15:28:20;11.00;;;7.80;;
78856;SDS011;68207;50.078;19.936;2023-02-28T15:30:52;11.70;;;7.90;;
78856;SDS011;68207;50.078;19.936;2023-02-28T15:33:20;10.10;;;8.10;;
78856;SDS011;68207;50.078;19.936;2023-02-28T15:35:48;11.70;;;8.40;;
78856;SDS011;68207;50.078;19.936;2023-02-28T15:38:15;9.90;;;7.90;;
78856;SDS011;68207;50.078;19.936;2023-02-28T15:43:25;10.70;;;8.70;;
78856;SDS011;68207;50.078;19.936;2023-02-28T15:48:36;9.70;;;7.90;;
78856;SDS011;68207;50.078;19.936;2023-02-28T15:56:44;12.50;;;8.90;;
78856;SDS011;68207;50.078;19.936;2023-02-28T15:59:18;12.00;;;9.00;;
78856;SDS011;68207;50.078;19.936;2023-02-28T16:01:46;14.50;;;9.30;;
78856;SDS011;68207;50.078;19.936;2023-02-28T16:04:16;13.00;;;8.20;;
78856;SDS011;68207;50.078;19.936;2023-02-28T16:06:59;11.80;;;8.10;;
78856;SDS011;68207;50.078;19.936;2023-02-28T16:09:27;10.70;;;8.10;;
78856;SDS011;68207;50.078;19.936;2023-02-28T16:11:55;14.00;;;9.10;;
78856;SDS011;68207;50.078;19.936;2023-02-28T16:14:22;13.10;;;9.20;;
78856;SDS011;68207;50.078;19.936;2023-02-28T16:16:51;17.30;;;9.50;;
78856;SDS011;68207;50.078;19.936;2023-02-28T16:19:18;12.70;;;8.60;;
78856;SDS011;68207;50.078;19.936;2023-02-28T16:21:44;15.80;;;9.60;;
78856;SDS011;68207;50.078;19.936;2023-02-28T16:24:10;14.60;;;9.30;;
78856;SDS011;68207;50.078;19.936;2023-02-28T16:26:35;13.90;;;8.10;;
78856;SDS011;68207;50.078;19.936;2023-02-28T16:29:04;14.80;;;8.90;;
78856;SDS011;68207;50.078;19.936;2023-02-28T16:31:30;15.00;;;9.20;;
78856;SDS011;68207;50.078;19.936;2023-02-28T16:33:59;16.50;;;9.40;;
78856;SDS011;68207;50.078;19.936;2023-02-28T16:36:25;16.10;;;9.20;;
78856;SDS011;68207;50.078;19.936;2023-02-28T16:38:50;14.40;;;9.10;;
78856;SDS011;68207;50.078;19.936;2023-02-28T16:41:20;17.60;;;9.70;;
78856;SDS011;68207;50.078;19.936;2023-02-28T16:43:48;13.00;;;8.50;;
78856;SDS011;68207;50.078;19.936;2023-02-28T16:46:17;14.50;;;9.20;;
78856;SDS011;68207;50.078;19.936;2023-02-28T16:51:13;12.80;;;8.50;;
78856;SDS011;68207;50.078;19.936;2023-02-28T16:53:39;11.60;;;8.00;;
78856;SDS011;68207;50.078;19.936;2023-02-28T16:56:04;11.80;;;8.10;;
78856;SDS011;68207;50.078;19.936;2023-02-28T16:58:31;17.40;;;8.70;;
78856;SDS011;68207;50.078;19.936;2023-02-28T17:01:00;15.90;;;9.10;;
78856;SDS011;68207;50.078;19.936;2023-02-28T17:03:26;13.00;;;8.40;;
78856;SDS011;68207;50.078;19.936;2023-02-28T17:08:18;15.30;;;9.80;;
78856;SDS011;68207;50.078;19.936;2023-02-28T17:10:44;15.20;;;8.60;;
78856;SDS011;68207;50.078;19.936;2023-02-28T17:13:09;17.60;;;10.10;;
78856;SDS011;68207;50.078;19.936;2023-02-28T17:15:35;18.90;;;9.50;;
78856;SDS011;68207;50.078;19.936;2023-02-28T17:18:02;17.10;;;9.70;;